sensor_id;sensor_type;location;lat;lon;timestamp;P1;durP1;ratioP1;P2;durP2;ratioP2
44862;SDS011;30597;49.628;10.850;2022-12-18T00:00:28;9.83;;;8.93;;
44862;SDS011;30597;49.628;10.850;2022-12-18T00:02:53;10.97;;;9.00;;
44862;SDS011;30597;49.628;10.850;2022-12-18T00:05:20;9.07;;;8.27;;
44862;SDS011;30597;49.628;10.850;2022-12-18T00:07:45;9.77;;;8.87;;
44862;SDS011;30597;49.628;10.850;2022-12-18T00:10:11;9.07;;;7.90;;
44862;SDS011;30597;49.628;10.850;2022-12-18T00:12:36;9.30;;;8.30;;
44862;SDS011;30597;49.628;10.850;2022-12-18T00:15:02;9.97;;;8.97;;
44862;SDS011;30597;49.628;10.850;2022-12-18T00:17:28;8.57;;;7.77;;
44862;SDS011;30597;49.628;10.850;2022-12-18T00:19:54;9.10;;;8.20;;
44862;SDS011;30597;49.628;10.850;2022-12-18T00:22:19;9.37;;;8.23;;
44862;SDS011;30597;49.628;10.850;2022-12-18T00:24:45;9.47;;;8.50;;
44862;SDS011;30597;49.628;10.850;2022-12-18T00:27:11;9.83;;;7.73;;
44862;SDS011;30597;49.628;10.850;2022-12-18T00:29:36;9.00;;;8.10;;
44862;SDS011;30597;49.628;10.850;2022-12-18T00:32:02;10.70;;;8.50;;
44862;SDS011;30597;49.628;10.850;2022-12-18T00:34:30;10.23;;;9.20;;
44862;SDS011;30597;49.628;10.850;2022-12-18T00:36:56;9.27;;;8.43;;
44862;SDS011;30597;49.628;10.850;2022-12-18T00:39:22;8.37;;;7.50;;
44862;SDS011;30597;49.628;10.850;2022-12-18T00:41:48;8.67;;;7.77;;
44862;SDS011;30597;49.628;10.850;2022-12-18T00:44:32;8.90;;;8.00;;
44862;SDS011;30597;49.628;10.850;2022-12-18T00:46:58;9.90;;;8.87;;
44862;SDS011;30597;49.628;10.850;2022-12-18T00:49:23;8.47;;;7.67;;
44862;SDS011;30597;49.628;10.850;2022-12-18T00:51:49;8.73;;;7.83;;
44862;SDS011;30597;49.628;10.850;2022-12-18T00:54:15;9.47;;;7.70;;
44862;SDS011;30597;49.628;10.850;2022-12-18T00:56:41;9.10;;;8.20;;
44862;SDS011;30597;49.628;10.850;2022-12-18T00:59:07;9.20;;;8.40;;
44862;SDS011;30597;49.628;10.850;2022-12-18T01:01:32;8.80;;;7.67;;
44862;SDS011;30597;49.628;10.850;2022-12-18T01:04:00;9.27;;;8.30;;
44862;SDS011;30597;49.628;10.850;2022-12-18T01:06:27;8.10;;;7.30;;
44862;SDS011;30597;49.628;10.850;2022-12-18T01:08:52;8.80;;;8.00;;
44862;SDS011;30597;49.628;10.850;2022-12-18T01:11:18;9.40;;;8.50;;
44862;SDS011;30597;49.628;10.850;2022-12-18T01:13:45;8.33;;;7.53;;
44862;SDS011;30597;49.628;10.850;2022-12-18T01:16:12;8.20;;;7.33;;
44862;SDS011;30597;49.628;10.850;2022-12-18T01:18:38;8.53;;;7.63;;
44862;SDS011;30597;49.628;10.850;2022-12-18T01:21:08;9.43;;;8.43;;
44862;SDS011;30597;49.628;10.850;2022-12-18T01:23:34;9.00;;;7.50;;
44862;SDS011;30597;49.628;10.850;2022-12-18T01:26:07;8.20;;;7.50;;
44862;SDS011;30597;49.628;10.850;2022-12-18T01:28:34;9.03;;;8.13;;
44862;SDS011;30597;49.628;10.850;2022-12-18T01:31:23;8.90;;;8.10;;
44862;SDS011;30597;49.628;10.850;2022-12-18T01:33:52;8.30;;;7.23;;
44862;SDS011;30597;49.628;10.850;2022-12-18T01:36:20;8.33;;;7.53;;
44862;SDS011;30597;49.628;10.850;2022-12-18T01:38:48;8.33;;;7.03;;
44862;SDS011;30597;49.628;10.850;2022-12-18T01:41:15;8.37;;;7.57;;
44862;SDS011;30597;49.628;10.850;2022-12-18T01:43:43;8.10;;;7.33;;
44862;SDS011;30597;49.628;10.850;2022-12-18T01:46:11;8.10;;;7.30;;
44862;SDS011;30597;49.628;10.850;2022-12-18T01:48:37;8.67;;;7.80;;
44862;SDS011;30597;49.628;10.850;2022-12-18T01:51:04;8.50;;;7.40;;
44862;SDS011;30597;49.628;10.850;2022-12-18T01:53:33;8.23;;;7.43;;
44862;SDS011;30597;49.628;10.850;2022-12-18T01:56:00;7.73;;;7.03;;
44862;SDS011;30597;49.628;10.850;2022-12-18T01:58:30;7.40;;;6.70;;
44862;SDS011;30597;49.628;10.850;2022-12-18T02:01:04;7.63;;;6.93;;
44862;SDS011;30597;49.628;10.850;2022-12-18T02:03:30;7.10;;;6.40;;
44862;SDS011;30597;49.628;10.850;2022-12-18T02:14:32;7.53;;;6.93;;
44862;SDS011;30597;49.628;10.850;2022-12-18T02:17:10;7.37;;;6.73;;
44862;SDS011;30597;49.628;10.850;2022-12-18T02:22:45;7.43;;;6.73;;
44862;SDS011;30597;49.628;10.850;2022-12-18T02:27:46;7.00;;;6.30;;
44862;SDS011;30597;49.628;10.850;2022-12-18T02:30:15;8.00;;;7.30;;
44862;SDS011;30597;49.628;10.850;2022-12-18T02:32:43;7.73;;;7.03;;
44862;SDS011;30597;49.628;10.850;2022-12-18T02:35:20;7.97;;;7.27;;
44862;SDS011;30597;49.628;10.850;2022-12-18T02:37:49;8.83;;;8.03;;
44862;SDS011;30597;49.628;10.850;2022-12-18T02:40:19;7.30;;;6.60;;
44862;SDS011;30597;49.628;10.850;2022-12-18T02:42:47;8.03;;;6.97;;
44862;SDS011;30597;49.628;10.850;2022-12-18T02:45:13;7.60;;;6.90;;
44862;SDS011;30597;49.628;10.850;2022-12-18T02:47:42;6.60;;;6.00;;
44862;SDS011;30597;49.628;10.850;2022-12-18T02:50:32;6.80;;;6.10;;
44862;SDS011;30597;49.628;10.850;2022-12-18T02:53:17;8.07;;;7.20;;
44862;SDS011;30597;49.628;10.850;2022-12-18T02:56:13;8.33;;;7.17;;
44862;SDS011;30597;49.628;10.850;2022-12-18T02:58:47;7.30;;;6.37;;
44862;SDS011;30597;49.628;10.850;2022-12-18T03:07:34;7.07;;;6.37;;
44862;SDS011;30597;49.628;10.850;2022-12-18T03:10:21;7.43;;;6.63;;
44862;SDS011;30597;49.628;10.850;2022-12-18T03:12:59;7.73;;;6.67;;
44862;SDS011;30597;49.628;10.850;2022-12-18T03:15:30;6.17;;;5.57;;
44862;SDS011;30597;49.628;10.850;2022-12-18T03:18:44;7.30;;;6.60;;
44862;SDS011;30597;49.628;10.850;2022-12-18T03:20:58;6.40;;;5.83;;
44862;SDS011;30597;49.628;10.850;2022-12-18T03:23:29;6.73;;;6.13;;
44862;SDS011;30597;49.628;10.850;2022-12-18T03:26:01;7.10;;;6.40;;
44862;SDS011;30597;49.628;10.850;2022-12-18T03:28:30;6.77;;;5.93;;
44862;SDS011;30597;49.628;10.850;2022-12-18T03:31:00;8.07;;;7.37;;
44862;SDS011;30597;49.628;10.850;2022-12-18T03:33:29;7.03;;;6.30;;
44862;SDS011;30597;49.628;10.850;2022-12-18T03:36:02;6.77;;;6.13;;
44862;SDS011;30597;49.628;10.850;2022-12-18T03:38:28;6.63;;;6.03;;
44862;SDS011;30597;49.628;10.850;2022-12-18T03:40:59;7.50;;;6.80;;
44862;SDS011;30597;49.628;10.850;2022-12-18T03:46:28;7.27;;;6.63;;
44862;SDS011;30597;49.628;10.850;2022-12-18T03:49:05;7.23;;;6.20;;
44862;SDS011;30597;49.628;10.850;2022-12-18T03:51:37;7.27;;;6.57;;
44862;SDS011;30597;49.628;10.850;2022-12-18T03:54:13;6.90;;;6.20;;
44862;SDS011;30597;49.628;10.850;2022-12-18T03:56:46;6.50;;;5.50;;
44862;SDS011;30597;49.628;10.850;2022-12-18T03:59:16;6.87;;;6.27;;
44862;SDS011;30597;49.628;10.850;2022-12-18T04:01:49;6.40;;;5.80;;
44862;SDS011;30597;49.628;10.850;2022-12-18T04:04:18;5.97;;;5.40;;
44862;SDS011;30597;49.628;10.850;2022-12-18T04:06:45;6.40;;;5.80;;
44862;SDS011;30597;49.628;10.850;2022-12-18T04:09:15;6.60;;;6.00;;
44862;SDS011;30597;49.628;10.850;2022-12-18T04:12:01;6.33;;;5.60;;
44862;SDS011;30597;49.628;10.850;2022-12-18T04:14:27;6.80;;;6.20;;
44862;SDS011;30597;49.628;10.850;2022-12-18T04:16:52;6.20;;;5.60;;
44862;SDS011;30597;49.628;10.850;2022-12-18T04:19:18;6.00;;;5.40;;
44862;SDS011;30597;49.628;10.850;2022-12-18T04:21:44;5.93;;;5.43;;
44862;SDS011;30597;49.628;10.850;2022-12-18T04:24:09;5.73;;;5.10;;
44862;SDS011;30597;49.628;10.850;2022-12-18T04:26:35;6.70;;;5.67;;
44862;SDS011;30597;49.628;10.850;2022-12-18T04:29:00;6.10;;;5.53;;
44862;SDS011;30597;49.628;10.850;2022-12-18T04:31:26;6.10;;;5.50;;
44862;SDS011;30597;49.628;10.850;2022-12-18T04:33:52;6.20;;;5.70;;
44862;SDS011;30597;49.628;10.850;2022-12-18T04:36:18;6.57;;;5.97;;
44862;SDS011;30597;49.628;10.850;2022-12-18T04:38:44;6.93;;;4.90;;
44862;SDS011;30597;49.628;10.850;2022-12-18T04:41:09;5.40;;;4.90;;
44862;SDS011;30597;49.628;10.850;2022-12-18T04:43:41;5.80;;;5.30;;
44862;SDS011;30597;49.628;10.850;2022-12-18T04:46:06;5.13;;;4.63;;
44862;SDS011;30597;49.628;10.850;2022-12-18T04:48:33;8.00;;;6.10;;
44862;SDS011;30597;49.628;10.850;2022-12-18T04:51:00;5.03;;;4.50;;
44862;SDS011;30597;49.628;10.850;2022-12-18T04:53:26;5.53;;;4.90;;
44862;SDS011;30597;49.628;10.850;2022-12-18T04:56:01;8.60;;;5.03;;
44862;SDS011;30597;49.628;10.850;2022-12-18T04:58:28;5.90;;;5.40;;
44862;SDS011;30597;49.628;10.850;2022-12-18T05:00:54;6.17;;;4.70;;
44862;SDS011;30597;49.628;10.850;2022-12-18T05:03:19;6.40;;;5.43;;
44862;SDS011;30597;49.628;10.850;2022-12-18T05:05:48;5.43;;;4.90;;
44862;SDS011;30597;49.628;10.850;2022-12-18T05:08:15;5.73;;;5.23;;
44862;SDS011;30597;49.628;10.850;2022-12-18T05:10:41;5.30;;;4.90;;
44862;SDS011;30597;49.628;10.850;2022-12-18T05:13:06;5.60;;;5.10;;
44862;SDS011;30597;49.628;10.850;2022-12-18T05:15:32;5.67;;;5.20;;
44862;SDS011;30597;49.628;10.850;2022-12-18T05:17:58;5.47;;;4.97;;
44862;SDS011;30597;49.628;10.850;2022-12-18T05:20:25;5.00;;;4.60;;
44862;SDS011;30597;49.628;10.850;2022-12-18T05:22:51;5.23;;;4.73;;
44862;SDS011;30597;49.628;10.850;2022-12-18T05:25:18;6.00;;;5.00;;
44862;SDS011;30597;49.628;10.850;2022-12-18T05:27:44;5.70;;;5.20;;
44862;SDS011;30597;49.628;10.850;2022-12-18T05:30:10;5.00;;;4.53;;
44862;SDS011;30597;49.628;10.850;2022-12-18T05:32:36;6.13;;;5.10;;
44862;SDS011;30597;49.628;10.850;2022-12-18T05:35:02;6.20;;;5.40;;
44862;SDS011;30597;49.628;10.850;2022-12-18T05:37:29;5.53;;;5.00;;
44862;SDS011;30597;49.628;10.850;2022-12-18T05:39:55;6.67;;;5.40;;
44862;SDS011;30597;49.628;10.850;2022-12-18T05:42:21;5.80;;;5.23;;
44862;SDS011;30597;49.628;10.850;2022-12-18T05:44:46;4.57;;;4.17;;
44862;SDS011;30597;49.628;10.850;2022-12-18T05:47:12;5.50;;;4.70;;
44862;SDS011;30597;49.628;10.850;2022-12-18T05:49:38;6.03;;;5.43;;
44862;SDS011;30597;49.628;10.850;2022-12-18T05:52:03;5.90;;;5.10;;
44862;SDS011;30597;49.628;10.850;2022-12-18T05:54:29;5.47;;;4.97;;
44862;SDS011;30597;49.628;10.850;2022-12-18T05:56:55;5.63;;;5.00;;
44862;SDS011;30597;49.628;10.850;2022-12-18T05:59:21;5.23;;;4.83;;
44862;SDS011;30597;49.628;10.850;2022-12-18T06:01:47;6.50;;;5.80;;
44862;SDS011;30597;49.628;10.850;2022-12-18T06:04:13;6.37;;;5.77;;
44862;SDS011;30597;49.628;10.850;2022-12-18T06:06:38;6.63;;;5.83;;
44862;SDS011;30597;49.628;10.850;2022-12-18T06:09:04;14.10;;;6.70;;
44862;SDS011;30597;49.628;10.850;2022-12-18T06:11:33;11.50;;;6.43;;
44862;SDS011;30597;49.628;10.850;2022-12-18T06:14:00;6.83;;;6.13;;
44862;SDS011;30597;49.628;10.850;2022-12-18T06:16:28;8.37;;;6.00;;
44862;SDS011;30597;49.628;10.850;2022-12-18T06:19:01;9.67;;;5.30;;
44862;SDS011;30597;49.628;10.850;2022-12-18T06:21:43;6.10;;;5.50;;
44862;SDS011;30597;49.628;10.850;2022-12-18T06:24:08;8.03;;;5.77;;
44862;SDS011;30597;49.628;10.850;2022-12-18T06:26:36;7.53;;;6.40;;
44862;SDS011;30597;49.628;10.850;2022-12-18T06:29:03;7.00;;;5.07;;
44862;SDS011;30597;49.628;10.850;2022-12-18T06:31:29;5.70;;;5.20;;
44862;SDS011;30597;49.628;10.850;2022-12-18T06:33:55;7.17;;;6.00;;
44862;SDS011;30597;49.628;10.850;2022-12-18T06:36:29;5.97;;;5.40;;
44862;SDS011;30597;49.628;10.850;2022-12-18T06:38:55;6.80;;;6.00;;
44862;SDS011;30597;49.628;10.850;2022-12-18T06:41:22;5.40;;;4.83;;
44862;SDS011;30597;49.628;10.850;2022-12-18T06:43:48;5.50;;;4.70;;
44862;SDS011;30597;49.628;10.850;2022-12-18T06:46:15;5.63;;;5.03;;
44862;SDS011;30597;49.628;10.850;2022-12-18T06:48:40;5.53;;;5.03;;
44862;SDS011;30597;49.628;10.850;2022-12-18T06:51:07;6.40;;;5.27;;
44862;SDS011;30597;49.628;10.850;2022-12-18T06:53:35;4.93;;;4.43;;
44862;SDS011;30597;49.628;10.850;2022-12-18T06:56:06;5.30;;;4.43;;
44862;SDS011;30597;49.628;10.850;2022-12-18T06:58:32;5.40;;;5.00;;
44862;SDS011;30597;49.628;10.850;2022-12-18T07:01:04;4.87;;;4.47;;
44862;SDS011;30597;49.628;10.850;2022-12-18T07:03:36;4.93;;;4.40;;
44862;SDS011;30597;49.628;10.850;2022-12-18T07:06:02;5.57;;;4.80;;
44862;SDS011;30597;49.628;10.850;2022-12-18T07:08:29;5.67;;;5.07;;
44862;SDS011;30597;49.628;10.850;2022-12-18T07:10:56;6.33;;;4.93;;
44862;SDS011;30597;49.628;10.850;2022-12-18T07:13:22;5.70;;;4.70;;
44862;SDS011;30597;49.628;10.850;2022-12-18T07:15:47;5.40;;;4.83;;
44862;SDS011;30597;49.628;10.850;2022-12-18T07:18:13;6.93;;;6.10;;
44862;SDS011;30597;49.628;10.850;2022-12-18T07:20:39;6.20;;;5.63;;
44862;SDS011;30597;49.628;10.850;2022-12-18T07:23:04;6.03;;;5.43;;
44862;SDS011;30597;49.628;10.850;2022-12-18T07:25:33;6.43;;;5.70;;
44862;SDS011;30597;49.628;10.850;2022-12-18T07:28:04;6.33;;;5.20;;
44862;SDS011;30597;49.628;10.850;2022-12-18T07:30:29;7.20;;;6.53;;
44862;SDS011;30597;49.628;10.850;2022-12-18T07:32:55;6.13;;;5.53;;
44862;SDS011;30597;49.628;10.850;2022-12-18T07:35:21;6.40;;;5.80;;
44862;SDS011;30597;49.628;10.850;2022-12-18T07:37:46;6.77;;;6.17;;
44862;SDS011;30597;49.628;10.850;2022-12-18T07:40:12;7.20;;;6.47;;
44862;SDS011;30597;49.628;10.850;2022-12-18T07:42:37;7.47;;;6.23;;
44862;SDS011;30597;49.628;10.850;2022-12-18T07:45:04;7.50;;;6.70;;
44862;SDS011;30597;49.628;10.850;2022-12-18T07:47:30;7.23;;;6.50;;
44862;SDS011;30597;49.628;10.850;2022-12-18T07:49:56;6.90;;;6.17;;
44862;SDS011;30597;49.628;10.850;2022-12-18T07:52:22;7.13;;;6.43;;
44862;SDS011;30597;49.628;10.850;2022-12-18T07:54:47;6.00;;;5.40;;
44862;SDS011;30597;49.628;10.850;2022-12-18T07:57:14;6.87;;;6.17;;
44862;SDS011;30597;49.628;10.850;2022-12-18T07:59:41;6.70;;;6.10;;
44862;SDS011;30597;49.628;10.850;2022-12-18T08:02:08;7.03;;;6.10;;
44862;SDS011;30597;49.628;10.850;2022-12-18T08:04:34;6.50;;;5.90;;
44862;SDS011;30597;49.628;10.850;2022-12-18T08:07:00;6.93;;;6.30;;
44862;SDS011;30597;49.628;10.850;2022-12-18T08:09:26;7.30;;;6.60;;
44862;SDS011;30597;49.628;10.850;2022-12-18T08:11:51;7.07;;;6.37;;
44862;SDS011;30597;49.628;10.850;2022-12-18T08:14:17;7.20;;;6.50;;
44862;SDS011;30597;49.628;10.850;2022-12-18T08:16:43;6.93;;;6.23;;
44862;SDS011;30597;49.628;10.850;2022-12-18T08:19:08;7.13;;;6.43;;
44862;SDS011;30597;49.628;10.850;2022-12-18T08:21:35;7.47;;;6.77;;
44862;SDS011;30597;49.628;10.850;2022-12-18T08:24:01;8.20;;;7.40;;
44862;SDS011;30597;49.628;10.850;2022-12-18T08:26:29;7.83;;;7.03;;
44862;SDS011;30597;49.628;10.850;2022-12-18T08:28:57;8.13;;;7.33;;
44862;SDS011;30597;49.628;10.850;2022-12-18T08:31:24;8.07;;;7.27;;
44862;SDS011;30597;49.628;10.850;2022-12-18T08:33:51;8.53;;;7.70;;
44862;SDS011;30597;49.628;10.850;2022-12-18T08:36:18;9.83;;;8.17;;
44862;SDS011;30597;49.628;10.850;2022-12-18T08:38:44;9.10;;;8.00;;
44862;SDS011;30597;49.628;10.850;2022-12-18T08:41:11;9.97;;;9.07;;
44862;SDS011;30597;49.628;10.850;2022-12-18T08:43:38;10.33;;;9.33;;
44862;SDS011;30597;49.628;10.850;2022-12-18T08:46:23;10.30;;;9.17;;
44862;SDS011;30597;49.628;10.850;2022-12-18T08:48:51;11.13;;;9.67;;
44862;SDS011;30597;49.628;10.850;2022-12-18T08:51:17;12.57;;;10.27;;
44862;SDS011;30597;49.628;10.850;2022-12-18T08:53:44;11.33;;;10.23;;
44862;SDS011;30597;49.628;10.850;2022-12-18T08:56:10;10.73;;;9.73;;
44862;SDS011;30597;49.628;10.850;2022-12-18T08:58:37;10.30;;;9.30;;
44862;SDS011;30597;49.628;10.850;2022-12-18T09:01:03;12.00;;;10.77;;
44862;SDS011;30597;49.628;10.850;2022-12-18T09:03:30;11.60;;;10.40;;
44862;SDS011;30597;49.628;10.850;2022-12-18T09:05:56;11.70;;;10.60;;
44862;SDS011;30597;49.628;10.850;2022-12-18T09:08:22;10.17;;;9.27;;
44862;SDS011;30597;49.628;10.850;2022-12-18T09:10:48;10.07;;;9.07;;
44862;SDS011;30597;49.628;10.850;2022-12-18T09:13:15;10.23;;;9.33;;
44862;SDS011;30597;49.628;10.850;2022-12-18T09:15:47;10.50;;;9.40;;
44862;SDS011;30597;49.628;10.850;2022-12-18T09:18:15;10.10;;;9.03;;
44862;SDS011;30597;49.628;10.850;2022-12-18T09:20:41;10.93;;;9.90;;
44862;SDS011;30597;49.628;10.850;2022-12-18T09:23:07;10.77;;;9.73;;
44862;SDS011;30597;49.628;10.850;2022-12-18T09:25:34;12.20;;;10.90;;
44862;SDS011;30597;49.628;10.850;2022-12-18T09:28:01;10.90;;;9.87;;
44862;SDS011;30597;49.628;10.850;2022-12-18T09:30:28;11.60;;;10.30;;
44862;SDS011;30597;49.628;10.850;2022-12-18T09:32:53;12.57;;;11.27;;
44862;SDS011;30597;49.628;10.850;2022-12-18T09:35:20;12.23;;;11.10;;
44862;SDS011;30597;49.628;10.850;2022-12-18T09:37:46;10.57;;;9.57;;
44862;SDS011;30597;49.628;10.850;2022-12-18T09:40:13;10.50;;;9.50;;
44862;SDS011;30597;49.628;10.850;2022-12-18T09:42:44;11.50;;;10.40;;
44862;SDS011;30597;49.628;10.850;2022-12-18T09:45:14;12.43;;;11.10;;
44862;SDS011;30597;49.628;10.850;2022-12-18T09:47:41;11.70;;;10.50;;
44862;SDS011;30597;49.628;10.850;2022-12-18T09:52:48;11.33;;;10.23;;
44862;SDS011;30597;49.628;10.850;2022-12-18T09:55:41;11.13;;;10.03;;
44862;SDS011;30597;49.628;10.850;2022-12-18T10:00:42;11.27;;;10.07;;
44862;SDS011;30597;49.628;10.850;2022-12-18T10:03:12;12.17;;;10.03;;
44862;SDS011;30597;49.628;10.850;2022-12-18T10:14:26;10.30;;;9.30;;
44862;SDS011;30597;49.628;10.850;2022-12-18T10:17:13;11.60;;;9.57;;
44862;SDS011;30597;49.628;10.850;2022-12-18T10:19:53;9.17;;;8.27;;
44862;SDS011;30597;49.628;10.850;2022-12-18T10:28:07;10.43;;;9.43;;
44862;SDS011;30597;49.628;10.850;2022-12-18T10:30:37;10.03;;;9.03;;
44862;SDS011;30597;49.628;10.850;2022-12-18T10:33:05;9.43;;;8.53;;
44862;SDS011;30597;49.628;10.850;2022-12-18T10:35:31;9.63;;;8.73;;
44862;SDS011;30597;49.628;10.850;2022-12-18T10:43:19;10.77;;;9.67;;
44862;SDS011;30597;49.628;10.850;2022-12-18T10:51:19;9.63;;;8.63;;
44862;SDS011;30597;49.628;10.850;2022-12-18T10:53:55;10.57;;;9.30;;
44862;SDS011;30597;49.628;10.850;2022-12-18T10:56:27;10.73;;;9.63;;
44862;SDS011;30597;49.628;10.850;2022-12-18T10:58:56;11.20;;;9.90;;
44862;SDS011;30597;49.628;10.850;2022-12-18T11:01:23;10.73;;;9.47;;
44862;SDS011;30597;49.628;10.850;2022-12-18T11:06:18;10.63;;;8.97;;
44862;SDS011;30597;49.628;10.850;2022-12-18T11:11:57;10.00;;;8.93;;
44862;SDS011;30597;49.628;10.850;2022-12-18T11:14:32;12.30;;;9.90;;
44862;SDS011;30597;49.628;10.850;2022-12-18T11:17:25;10.43;;;9.33;;
44862;SDS011;30597;49.628;10.850;2022-12-18T11:20:01;11.10;;;9.90;;
44862;SDS011;30597;49.628;10.850;2022-12-18T11:22:33;10.27;;;9.17;;
44862;SDS011;30597;49.628;10.850;2022-12-18T11:27:37;9.97;;;8.20;;
44862;SDS011;30597;49.628;10.850;2022-12-18T11:30:23;9.07;;;8.17;;
44862;SDS011;30597;49.628;10.850;2022-12-18T11:33:10;8.77;;;7.90;;
44862;SDS011;30597;49.628;10.850;2022-12-18T11:35:44;12.33;;;8.83;;
44862;SDS011;30597;49.628;10.850;2022-12-18T11:38:17;9.30;;;7.73;;
44862;SDS011;30597;49.628;10.850;2022-12-18T11:41:37;9.80;;;8.30;;
44862;SDS011;30597;49.628;10.850;2022-12-18T11:47:48;9.57;;;8.20;;
44862;SDS011;30597;49.628;10.850;2022-12-18T11:50:30;8.50;;;7.60;;
44862;SDS011;30597;49.628;10.850;2022-12-18T11:53:18;10.57;;;8.77;;
44862;SDS011;30597;49.628;10.850;2022-12-18T11:56:58;9.20;;;8.30;;
44862;SDS011;30597;49.628;10.850;2022-12-18T11:59:32;9.17;;;8.27;;
44862;SDS011;30597;49.628;10.850;2022-12-18T12:25:33;8.50;;;7.50;;
44862;SDS011;30597;49.628;10.850;2022-12-18T12:34:34;7.00;;;6.20;;
44862;SDS011;30597;49.628;10.850;2022-12-18T12:38:05;8.23;;;6.63;;
44862;SDS011;30597;49.628;10.850;2022-12-18T12:40:39;9.40;;;7.77;;
44862;SDS011;30597;49.628;10.850;2022-12-18T12:46:00;8.67;;;6.97;;
44862;SDS011;30597;49.628;10.850;2022-12-18T12:49:11;7.30;;;6.60;;
44862;SDS011;30597;49.628;10.850;2022-12-18T12:56:19;7.90;;;6.57;;
44862;SDS011;30597;49.628;10.850;2022-12-18T13:04:08;6.60;;;6.00;;
44862;SDS011;30597;49.628;10.850;2022-12-18T13:07:14;6.97;;;6.30;;
44862;SDS011;30597;49.628;10.850;2022-12-18T13:12:53;6.93;;;5.87;;
44862;SDS011;30597;49.628;10.850;2022-12-18T13:15:45;6.10;;;5.50;;
44862;SDS011;30597;49.628;10.850;2022-12-18T13:18:17;6.87;;;5.17;;
44862;SDS011;30597;49.628;10.850;2022-12-18T13:20:47;5.67;;;5.13;;
44862;SDS011;30597;49.628;10.850;2022-12-18T13:23:28;7.90;;;6.57;;
44862;SDS011;30597;49.628;10.850;2022-12-18T13:28:51;6.80;;;5.23;;
44862;SDS011;30597;49.628;10.850;2022-12-18T13:34:24;7.97;;;6.17;;
44862;SDS011;30597;49.628;10.850;2022-12-18T13:43:47;8.37;;;7.00;;
44862;SDS011;30597;49.628;10.850;2022-12-18T13:46:27;22.90;;;18.20;;
44862;SDS011;30597;49.628;10.850;2022-12-18T13:51:46;28.33;;;22.57;;
44862;SDS011;30597;49.628;10.850;2022-12-18T13:55:22;25.80;;;21.30;;
44862;SDS011;30597;49.628;10.850;2022-12-18T13:58:21;25.10;;;21.53;;
44862;SDS011;30597;49.628;10.850;2022-12-18T14:01:24;23.73;;;20.00;;
44862;SDS011;30597;49.628;10.850;2022-12-18T14:04:45;22.93;;;20.37;;
44862;SDS011;30597;49.628;10.850;2022-12-18T14:12:31;21.47;;;17.93;;
44862;SDS011;30597;49.628;10.850;2022-12-18T14:17:59;20.77;;;18.30;;
44862;SDS011;30597;49.628;10.850;2022-12-18T14:20:54;22.43;;;18.30;;
44862;SDS011;30597;49.628;10.850;2022-12-18T14:23:40;18.80;;;16.63;;
44862;SDS011;30597;49.628;10.850;2022-12-18T14:26:31;19.47;;;17.47;;
44862;SDS011;30597;49.628;10.850;2022-12-18T14:29:23;18.73;;;16.73;;
44862;SDS011;30597;49.628;10.850;2022-12-18T14:32:07;17.83;;;16.00;;
44862;SDS011;30597;49.628;10.850;2022-12-18T14:34:58;18.50;;;16.60;;
44862;SDS011;30597;49.628;10.850;2022-12-18T14:37:46;18.67;;;16.23;;
44862;SDS011;30597;49.628;10.850;2022-12-18T14:40:13;20.63;;;18.03;;
44862;SDS011;30597;49.628;10.850;2022-12-18T14:42:43;17.73;;;15.90;;
44862;SDS011;30597;49.628;10.850;2022-12-18T14:48:07;16.63;;;14.80;;
44862;SDS011;30597;49.628;10.850;2022-12-18T14:50:39;17.27;;;15.00;;
44862;SDS011;30597;49.628;10.850;2022-12-18T14:53:21;18.00;;;16.00;;
44862;SDS011;30597;49.628;10.850;2022-12-18T14:56:13;17.10;;;14.73;;
44862;SDS011;30597;49.628;10.850;2022-12-18T14:58:49;16.20;;;14.50;;
44862;SDS011;30597;49.628;10.850;2022-12-18T15:01:58;15.43;;;13.77;;
44862;SDS011;30597;49.628;10.850;2022-12-18T15:04:32;16.30;;;14.57;;
44862;SDS011;30597;49.628;10.850;2022-12-18T15:07:20;16.33;;;14.60;;
44862;SDS011;30597;49.628;10.850;2022-12-18T15:10:00;16.30;;;14.70;;
44862;SDS011;30597;49.628;10.850;2022-12-18T15:12:34;15.43;;;13.37;;
44862;SDS011;30597;49.628;10.850;2022-12-18T15:23:21;15.50;;;14.00;;
44862;SDS011;30597;49.628;10.850;2022-12-18T15:25:48;16.23;;;14.00;;
44862;SDS011;30597;49.628;10.850;2022-12-18T15:28:25;14.63;;;13.13;;
44862;SDS011;30597;49.628;10.850;2022-12-18T15:30:57;14.70;;;13.10;;
44862;SDS011;30597;49.628;10.850;2022-12-18T15:33:34;15.00;;;13.57;;
44862;SDS011;30597;49.628;10.850;2022-12-18T15:36:03;15.30;;;13.80;;
44862;SDS011;30597;49.628;10.850;2022-12-18T15:38:33;14.67;;;12.93;;
44862;SDS011;30597;49.628;10.850;2022-12-18T15:40:58;16.17;;;13.43;;
44862;SDS011;30597;49.628;10.850;2022-12-18T15:43:24;15.80;;;14.30;;
44862;SDS011;30597;49.628;10.850;2022-12-18T15:46:01;16.40;;;14.40;;
44862;SDS011;30597;49.628;10.850;2022-12-18T15:48:34;15.97;;;14.37;;
44862;SDS011;30597;49.628;10.850;2022-12-18T15:51:04;18.07;;;14.90;;
44862;SDS011;30597;49.628;10.850;2022-12-18T15:53:34;17.73;;;14.37;;
44862;SDS011;30597;49.628;10.850;2022-12-18T15:56:00;16.40;;;13.97;;
44862;SDS011;30597;49.628;10.850;2022-12-18T15:58:44;15.00;;;13.50;;
44862;SDS011;30597;49.628;10.850;2022-12-18T16:01:10;16.83;;;15.10;;
44862;SDS011;30597;49.628;10.850;2022-12-18T16:03:36;16.50;;;14.00;;
44862;SDS011;30597;49.628;10.850;2022-12-18T16:06:02;16.13;;;14.43;;
44862;SDS011;30597;49.628;10.850;2022-12-18T16:08:28;18.27;;;14.60;;
44862;SDS011;30597;49.628;10.850;2022-12-18T16:10:55;21.17;;;15.73;;
44862;SDS011;30597;49.628;10.850;2022-12-18T16:13:21;18.73;;;16.73;;
44862;SDS011;30597;49.628;10.850;2022-12-18T16:15:50;19.80;;;16.50;;
44862;SDS011;30597;49.628;10.850;2022-12-18T16:18:17;19.77;;;16.77;;
44862;SDS011;30597;49.628;10.850;2022-12-18T16:20:42;18.17;;;16.27;;
44862;SDS011;30597;49.628;10.850;2022-12-18T16:23:08;23.47;;;16.70;;
44862;SDS011;30597;49.628;10.850;2022-12-18T16:25:35;23.00;;;16.60;;
44862;SDS011;30597;49.628;10.850;2022-12-18T16:28:00;18.90;;;16.27;;
44862;SDS011;30597;49.628;10.850;2022-12-18T16:30:30;18.20;;;15.67;;
44862;SDS011;30597;49.628;10.850;2022-12-18T16:32:57;19.03;;;16.23;;
44862;SDS011;30597;49.628;10.850;2022-12-18T16:35:35;24.27;;;17.87;;
44862;SDS011;30597;49.628;10.850;2022-12-18T16:38:02;26.30;;;18.60;;
44862;SDS011;30597;49.628;10.850;2022-12-18T16:40:30;24.50;;;18.10;;
44862;SDS011;30597;49.628;10.850;2022-12-18T16:42:56;23.70;;;19.70;;
44862;SDS011;30597;49.628;10.850;2022-12-18T16:45:22;25.37;;;18.07;;
44862;SDS011;30597;49.628;10.850;2022-12-18T16:47:48;21.43;;;17.50;;
44862;SDS011;30597;49.628;10.850;2022-12-18T16:50:14;22.90;;;18.93;;
44862;SDS011;30597;49.628;10.850;2022-12-18T16:52:40;21.50;;;17.47;;
44862;SDS011;30597;49.628;10.850;2022-12-18T16:55:10;21.07;;;17.33;;
44862;SDS011;30597;49.628;10.850;2022-12-18T16:57:36;22.20;;;18.20;;
44862;SDS011;30597;49.628;10.850;2022-12-18T17:00:02;22.87;;;18.07;;
44862;SDS011;30597;49.628;10.850;2022-12-18T17:02:31;24.73;;;17.27;;
44862;SDS011;30597;49.628;10.850;2022-12-18T17:04:57;18.70;;;16.00;;
44862;SDS011;30597;49.628;10.850;2022-12-18T17:07:23;19.67;;;16.23;;
44862;SDS011;30597;49.628;10.850;2022-12-18T17:09:50;18.17;;;15.83;;
44862;SDS011;30597;49.628;10.850;2022-12-18T17:12:18;18.10;;;15.80;;
44862;SDS011;30597;49.628;10.850;2022-12-18T17:14:44;18.97;;;15.73;;